Time;durP1;ratioP1;P1;durP2;ratioP2;P2;SDS_P1;SDS_P2;PMS_P1;PMS_P2;Temp;Humidity;BMP_temperature;BMP_pressure;BME280_temperature;BME280_humidity;BME280_pressure;Samples;Min_cycle;Max_cycle;Signal;HPM_P1;HPM_P2
2024/02/20 00:02:05;;;;;;;0.68;0.68;;;7.00;99.90;;;;;;5087075;28;20399;-82
2024/02/20 00:04:32;;;;;;;0.40;0.40;;;6.90;99.90;;;;;;5088381;28;20290;-82
2024/02/20 00:06:59;;;;;;;0.52;0.52;;;7.00;99.90;;;;;;5100824;28;20203;-81
2024/02/20 00:09:26;;;;;;;0.70;0.70;;;7.00;99.90;;;;;;5099602;28;20206;-85
2024/02/20 00:11:53;;;;;;;0.50;0.50;;;6.90;99.90;;;;;;5092145;28;20439;-81
2024/02/20 00:14:21;;;;;;;0.50;0.50;;;7.00;99.90;;;;;;5089396;28;20223;-82
2024/02/20 00:16:49;;;;;;;0.40;0.40;;;6.90;99.90;;;;;;5089917;28;20274;-82
2024/02/20 00:19:16;;;;;;;0.50;0.50;;;7.00;99.90;;;;;;5081135;28;20237;-81
2024/02/20 00:21:43;;;;;;;0.40;0.40;;;6.90;99.90;;;;;;5092940;28;20488;-81
2024/02/20 00:24:10;;;;;;;0.63;0.63;;;6.90;99.90;;;;;;5096302;28;20492;-82
2024/02/20 00:26:38;;;;;;;0.60;0.60;;;7.00;99.90;;;;;;5094584;28;20515;-82
2024/02/20 00:29:05;;;;;;;0.60;0.60;;;6.90;99.90;;;;;;5091323;28;20543;-82
2024/02/20 00:31:33;;;;;;;0.73;0.73;;;6.80;99.90;;;;;;5087739;28;20234;-82
2024/02/20 00:34:01;;;;;;;1.50;1.15;;;7.00;99.90;;;;;;5097959;28;20214;-81
2024/02/20 00:36:29;;;;;;;0.55;0.55;;;6.80;99.90;;;;;;5081512;28;20218;-79
2024/02/20 00:38:56;;;;;;;0.77;0.77;;;6.70;99.90;;;;;;5080144;28;20233;-80
2024/02/20 00:41:24;;;;;;;0.50;0.50;;;6.70;99.90;;;;;;5077129;28;20266;-81
2024/02/20 00:43:51;;;;;;;1.30;1.30;;;6.70;99.90;;;;;;5079127;28;20203;-80
2024/02/20 00:46:22;;;;;;;0.98;0.98;;;6.70;99.90;;;;;;5087373;28;20274;-79
2024/02/20 00:48:50;;;;;;;0.60;0.60;;;6.70;99.90;;;;;;5093331;28;20217;-79
2024/02/20 00:51:19;;;;;;;0.90;0.90;;;6.70;99.90;;;;;;5082495;28;20207;-81
2024/02/20 00:53:47;;;;;;;0.80;0.80;;;6.70;99.90;;;;;;5084982;28;20293;-79
2024/02/20 00:56:14;;;;;;;0.60;0.60;;;6.80;99.90;;;;;;5078865;28;20270;-80
2024/02/20 00:58:45;;;;;;;2.83;2.63;;;6.70;99.90;;;;;;5095573;28;20198;-79
2024/02/20 01:01:13;;;;;;;0.65;0.65;;;6.70;99.90;;;;;;5081086;28;20200;-80
2024/02/20 01:03:44;;;;;;;1.63;1.63;;;6.70;99.90;;;;;;5096641;28;20226;-80
2024/02/20 01:06:11;;;;;;;0.40;0.40;;;6.70;99.90;;;;;;5080829;28;20201;-80
2024/02/20 01:08:39;;;;;;;3.60;1.25;;;6.80;99.90;;;;;;5072321;28;20202;-80
2024/02/20 01:11:07;;;;;;;0.77;0.77;;;6.80;99.90;;;;;;5086411;28;20519;-80
2024/02/20 01:13:34;;;;;;;0.93;0.93;;;6.80;99.90;;;;;;5088537;28;20236;-80
2024/02/20 01:16:01;;;;;;;1.90;1.83;;;6.80;99.90;;;;;;5087829;28;20200;-81
2024/02/20 01:18:29;;;;;;;0.43;0.43;;;6.80;99.90;;;;;;5097689;28;20249;-81
2024/02/20 01:20:56;;;;;;;1.20;1.13;;;6.80;99.90;;;;;;5088400;28;20199;-79
2024/02/20 01:23:23;;;;;;;1.25;1.15;;;6.80;99.90;;;;;;5092769;28;20195;-79
2024/02/20 01:25:50;;;;;;;0.70;0.70;;;6.70;99.90;;;;;;5090710;28;20194;-80
2024/02/20 01:28:17;;;;;;;0.50;0.50;;;6.80;99.90;;;;;;5094779;28;20195;-81
2024/02/20 01:30:45;;;;;;;0.50;0.50;;;6.80;99.90;;;;;;5083590;28;20205;-80
2024/02/20 01:33:12;;;;;;;1.90;1.80;;;6.80;99.90;;;;;;5086125;28;20571;-80
2024/02/20 01:35:41;;;;;;;0.98;0.98;;;6.80;99.90;;;;;;5083664;28;20553;-80
2024/02/20 01:38:08;;;;;;;0.50;0.50;;;6.80;99.90;;;;;;5092359;28;20201;-80
2024/02/20 01:40:39;;;;;;;0.65;0.65;;;6.80;99.90;;;;;;5070603;28;20258;-81
2024/02/20 01:43:07;;;;;;;1.08;1.05;;;6.80;99.90;;;;;;5061362;28;20395;-81
2024/02/20 01:45:34;;;;;;;0.50;0.50;;;6.80;99.90;;;;;;5083027;28;20262;-81
2024/02/20 01:48:03;;;;;;;1.02;1.02;;;6.60;99.90;;;;;;5083277;28;20258;-81
2024/02/20 01:50:33;;;;;;;0.93;0.93;;;6.70;99.90;;;;;;5075656;28;20246;-81
2024/02/20 01:53:05;;;;;;;0.60;0.60;;;6.60;99.90;;;;;;5079573;28;20257;-80
2024/02/20 01:55:34;;;;;;;1.25;1.25;;;6.80;99.90;;;;;;5079551;28;20384;-81
2024/02/20 01:58:01;;;;;;;0.50;0.50;;;6.70;99.90;;;;;;5067329;28;20226;-80
2024/02/20 02:00:28;;;;;;;0.40;0.40;;;6.80;99.90;;;;;;5070722;28;20195;-81
2024/02/20 02:02:56;;;;;;;1.10;1.10;;;6.60;99.90;;;;;;5088020;28;20478;-80
2024/02/20 02:05:23;;;;;;;0.60;0.60;;;6.40;99.90;;;;;;5088221;28;20552;-80
2024/02/20 02:07:51;;;;;;;0.60;0.60;;;6.50;99.90;;;;;;5083852;28;20267;-81
2024/02/20 02:10:18;;;;;;;1.10;1.05;;;6.50;99.90;;;;;;5075656;28;20218;-80
2024/02/20 02:12:45;;;;;;;1.20;1.15;;;6.50;99.90;;;;;;5077162;28;20195;-79
2024/02/20 02:15:12;;;;;;;1.95;1.85;;;6.60;99.90;;;;;;5082667;28;20250;-82
2024/02/20 02:17:39;;;;;;;0.85;0.85;;;6.60;99.90;;;;;;5095317;28;20210;-81
2024/02/20 02:20:07;;;;;;;0.50;0.50;;;6.60;99.90;;;;;;5095925;28;20195;-82
2024/02/20 02:22:34;;;;;;;0.90;0.90;;;6.60;99.90;;;;;;5089627;28;20206;-79
2024/02/20 02:25:03;;;;;;;0.88;0.88;;;6.70;99.90;;;;;;5069537;28;20395;-80
2024/02/20 02:27:30;;;;;;;0.77;0.77;;;6.70;99.90;;;;;;5062762;28;20194;-81
2024/02/20 02:29:57;;;;;;;0.57;0.57;;;6.70;99.90;;;;;;5095598;28;20203;-80
2024/02/20 02:32:24;;;;;;;1.45;1.33;;;6.70;99.90;;;;;;5094245;28;20237;-80
2024/02/20 02:34:51;;;;;;;1.20;1.20;;;6.70;99.90;;;;;;5093770;28;20226;-80
2024/02/20 02:37:19;;;;;;;2.03;1.92;;;6.70;99.90;;;;;;5091482;28;20410;-80
2024/02/20 02:39:46;;;;;;;1.42;1.33;;;6.70;99.90;;;;;;5082740;28;20195;-80
2024/02/20 02:42:13;;;;;;;0.50;0.50;;;6.70;99.90;;;;;;5086461;28;20201;-80
2024/02/20 02:44:40;;;;;;;1.88;1.80;;;6.70;99.90;;;;;;5075608;28;20306;-81
2024/02/20 02:47:07;;;;;;;0.70;0.70;;;6.80;99.90;;;;;;5087268;28;20227;-80
2024/02/20 02:49:35;;;;;;;0.82;0.82;;;6.80;99.90;;;;;;5070993;28;20253;-79
2024/02/20 02:52:02;;;;;;;0.70;0.70;;;6.80;99.90;;;;;;5082280;28;20194;-80
2024/02/20 02:54:29;;;;;;;0.57;0.57;;;6.80;99.90;;;;;;5077700;28;20223;-81
2024/02/20 02:56:59;;;;;;;0.40;0.40;;;6.90;99.90;;;;;;5090696;28;20202;-81
2024/02/20 02:59:26;;;;;;;1.80;1.70;;;6.80;99.90;;;;;;5095866;28;20262;-80
2024/02/20 03:01:53;;;;;;;1.58;1.48;;;6.80;99.90;;;;;;5096515;28;20261;-80
2024/02/20 03:04:20;;;;;;;4.55;1.15;;;6.90;99.90;;;;;;5086473;28;20380;-81
2024/02/20 03:06:48;;;;;;;1.80;1.70;;;6.90;99.90;;;;;;5068986;28;20214;-80
2024/02/20 03:09:18;;;;;;;1.23;1.23;;;6.90;99.90;;;;;;5092668;28;20593;-80
2024/02/20 03:11:44;;;;;;;1.42;1.42;;;6.90;99.90;;;;;;5084160;28;20199;-80
2024/02/20 03:14:13;;;;;;;3.15;2.88;;;6.90;99.90;;;;;;5085710;28;20225;-81
2024/02/20 03:16:40;;;;;;;0.50;0.50;;;6.90;99.90;;;;;;5087942;28;20446;-80
2024/02/20 03:19:08;;;;;;;1.63;1.30;;;6.90;99.90;;;;;;5088610;28;20206;-81
2024/02/20 03:21:39;;;;;;;0.68;0.68;;;6.90;99.90;;;;;;5088003;28;20198;-80
2024/02/20 03:24:06;;;;;;;0.85;0.85;;;6.90;99.90;;;;;;5087951;28;20201;-81
2024/02/20 03:26:33;;;;;;;2.80;2.60;;;6.90;99.90;;;;;;5083296;28;20238;-80
2024/02/20 03:29:00;;;;;;;1.00;1.00;;;6.90;99.90;;;;;;5095103;28;20491;-80
2024/02/20 03:31:27;;;;;;;2.53;2.33;;;6.90;99.90;;;;;;5103709;28;20206;-81
2024/02/20 03:33:54;;;;;;;1.85;1.75;;;7.00;99.90;;;;;;5104139;28;20217;-82
2024/02/20 03:36:21;;;;;;;0.40;0.40;;;7.00;99.90;;;;;;5107359;28;20207;-83
2024/02/20 03:38:49;;;;;;;1.08;1.08;;;6.90;99.90;;;;;;5103768;28;20246;-80
2024/02/20 03:41:16;;;;;;;1.27;1.05;;;6.90;99.90;;;;;;5082339;28;20198;-80
2024/02/20 03:43:43;;;;;;;0.40;0.40;;;6.90;99.90;;;;;;5086196;28;20544;-80
2024/02/20 03:46:11;;;;;;;1.85;1.75;;;6.90;99.90;;;;;;5084498;28;20369;-82
2024/02/20 03:48:39;;;;;;;0.40;0.40;;;6.80;99.90;;;;;;5088069;28;20201;-80
2024/02/20 03:51:06;;;;;;;1.13;1.13;;;6.90;99.90;;;;;;5082359;28;20201;-81
2024/02/20 03:53:33;;;;;;;1.35;1.25;;;7.00;99.90;;;;;;5092783;28;20245;-80
2024/02/20 03:56:00;;;;;;;9.80;1.73;;;7.00;99.90;;;;;;5090637;28;20226;-81
2024/02/20 03:58:27;;;;;;;0.98;0.95;;;6.90;99.90;;;;;;5078345;28;20447;-79
2024/02/20 04:00:54;;;;;;;0.70;0.70;;;7.00;99.90;;;;;;5086474;28;20195;-81
2024/02/20 04:03:21;;;;;;;1.35;1.25;;;7.00;99.90;;;;;;5090617;28;20207;-81
2024/02/20 04:05:48;;;;;;;2.28;2.17;;;7.00;99.90;;;;;;5067972;28;20276;-80
2024/02/20 04:08:15;;;;;;;0.55;0.55;;;7.20;99.90;;;;;;5079908;28;20246;-80
2024/02/20 04:10:43;;;;;;;1.48;0.75;;;7.00;99.90;;;;;;5066733;28;20224;-80
2024/02/20 04:13:10;;;;;;;2.35;2.25;;;7.10;99.90;;;;;;5090109;28;20195;-81
2024/02/20 04:15:37;;;;;;;0.60;0.60;;;7.00;99.90;;;;;;5085570;28;20252;-80
2024/02/20 04:18:05;;;;;;;1.52;1.42;;;7.10;99.90;;;;;;5085433;28;20426;-81
2024/02/20 04:20:32;;;;;;;0.77;0.77;;;7.10;99.90;;;;;;5095346;28;20288;-81
2024/02/20 04:23:03;;;;;;;0.70;0.70;;;7.10;99.90;;;;;;5088720;28;20227;-81
2024/02/20 04:25:30;;;;;;;1.98;1.85;;;7.00;99.90;;;;;;5066737;28;20225;-80
2024/02/20 04:27:58;;;;;;;0.93;0.93;;;7.00;99.90;;;;;;5075043;28;20201;-81
2024/02/20 04:30:25;;;;;;;1.65;1.55;;;7.10;99.90;;;;;;5096295;28;20240;-80
2024/02/20 04:32:52;;;;;;;0.80;0.80;;;7.00;99.90;;;;;;5088654;28;20434;-79
2024/02/20 04:35:20;;;;;;;0.70;0.70;;;7.20;99.90;;;;;;5096625;28;20550;-81
2024/02/20 04:37:47;;;;;;;0.40;0.40;;;7.00;99.90;;;;;;5090944;28;20390;-81
2024/02/20 04:40:16;;;;;;;0.70;0.70;;;6.90;99.90;;;;;;5076574;28;20269;-83
2024/02/20 04:42:44;;;;;;;1.10;1.10;;;7.00;99.90;;;;;;5065090;28;20427;-80
2024/02/20 04:45:11;;;;;;;1.52;1.42;;;7.00;99.90;;;;;;5072951;28;20266;-81
2024/02/20 04:47:38;;;;;;;0.77;0.77;;;7.00;99.90;;;;;;5085545;28;20394;-79
2024/02/20 04:50:05;;;;;;;0.40;0.40;;;7.00;99.90;;;;;;5091826;28;20383;-78
2024/02/20 04:52:33;;;;;;;2.13;2.03;;;7.00;99.90;;;;;;5062011;28;20419;-79
2024/02/20 04:55:02;;;;;;;0.65;0.65;;;7.00;99.90;;;;;;5083635;28;20557;-79
2024/02/20 04:57:29;;;;;;;0.88;0.88;;;7.10;99.90;;;;;;5101770;28;20207;-81
2024/02/20 04:59:57;;;;;;;1.38;1.38;;;7.00;99.90;;;;;;5071962;28;20196;-80
2024/02/20 05:02:24;;;;;;;1.98;1.58;;;7.00;99.90;;;;;;5083240;28;20447;-80
2024/02/20 05:04:51;;;;;;;4.45;1.77;;;7.00;99.90;;;;;;5074639;28;20266;-79
2024/02/20 05:07:22;;;;;;;0.80;0.80;;;7.00;99.90;;;;;;5074089;28;20503;-80
2024/02/20 05:09:50;;;;;;;0.90;0.90;;;7.00;99.90;;;;;;5083120;28;20203;-78
2024/02/20 05:12:17;;;;;;;0.70;0.70;;;7.00;99.90;;;;;;5084524;28;20195;-79
2024/02/20 05:14:50;;;;;;;1.30;1.20;;;7.00;99.90;;;;;;5084747;28;20383;-80
2024/02/20 05:17:17;;;;;;;1.67;1.58;;;7.00;99.90;;;;;;5071039;28;20286;-79
2024/02/20 05:19:44;;;;;;;0.60;0.60;;;7.10;99.90;;;;;;5081221;28;20214;-81
2024/02/20 05:22:31;;;;;;;2.33;2.13;;;7.10;99.90;;;;;;5065398;28;20254;-80
2024/02/20 05:24:58;;;;;;;3.30;3.10;;;7.00;99.90;;;;;;5078959;28;20199;-80
2024/02/20 05:27:25;;;;;;;1.52;1.42;;;7.10;99.90;;;;;;5092001;28;20266;-81
2024/02/20 05:29:52;;;;;;;2.00;1.90;;;7.00;99.90;;;;;;5084205;28;20197;-80
2024/02/20 05:32:20;;;;;;;1.42;1.30;;;7.10;99.90;;;;;;5078324;28;20203;-80
2024/02/20 05:34:46;;;;;;;6.72;2.38;;;7.10;99.90;;;;;;5096370;28;20567;-80
2024/02/20 05:37:14;;;;;;;1.52;1.52;;;7.10;99.90;;;;;;5104362;28;20194;-80
2024/02/20 05:39:42;;;;;;;1.10;1.10;;;7.10;99.90;;;;;;5070845;28;20246;-82
2024/02/20 05:42:09;;;;;;;1.77;1.67;;;7.20;99.90;;;;;;5065788;28;20233;-80
2024/02/20 05:44:36;;;;;;;3.60;3.38;;;7.10;99.90;;;;;;5083318;28;20434;-81
2024/02/20 05:47:03;;;;;;;0.70;0.70;;;7.10;99.90;;;;;;5071596;28;20347;-80
2024/02/20 05:49:33;;;;;;;1.88;1.77;;;7.10;99.90;;;;;;5092164;28;20229;-81
2024/02/20 05:52:00;;;;;;;0.68;0.68;;;7.20;99.90;;;;;;5085657;28;20407;-80
2024/02/20 05:54:27;;;;;;;21.70;2.83;;;7.10;99.90;;;;;;5087610;28;20532;-80
2024/02/20 05:56:54;;;;;;;2.25;2.05;;;7.10;99.90;;;;;;5083685;28;20223;-80
2024/02/20 05:59:21;;;;;;;1.52;1.42;;;7.10;99.90;;;;;;5071574;28;20261;-80
2024/02/20 06:01:48;;;;;;;7.40;3.40;;;7.10;99.90;;;;;;5079852;28;20567;-80
2024/02/20 06:04:15;;;;;;;1.80;1.70;;;7.10;99.90;;;;;;5082976;28;20218;-80
2024/02/20 06:06:43;;;;;;;0.77;0.77;;;7.10;99.90;;;;;;5063305;28;20199;-80
2024/02/20 06:09:11;;;;;;;0.82;0.82;;;7.20;99.90;;;;;;5078704;28;20229;-80
2024/02/20 06:11:38;;;;;;;1.80;1.70;;;7.20;99.90;;;;;;5062840;28;20262;-80
2024/02/20 06:14:06;;;;;;;0.98;0.98;;;7.20;99.90;;;;;;5085875;28;20195;-80
2024/02/20 06:16:33;;;;;;;0.65;0.65;;;7.30;99.90;;;;;;5088342;28;20593;-80
2024/02/20 06:19:00;;;;;;;2.05;1.95;;;7.30;99.90;;;;;;5073871;28;20223;-79
2024/02/20 06:21:27;;;;;;;1.05;1.05;;;7.30;99.90;;;;;;5071062;28;20203;-81
2024/02/20 06:23:54;;;;;;;0.80;0.80;;;7.50;99.90;;;;;;5082680;28;20222;-80
2024/02/20 06:26:22;;;;;;;4.38;4.03;;;7.30;99.90;;;;;;5087226;28;20489;-81
2024/02/20 06:28:49;;;;;;;0.80;0.80;;;7.30;99.90;;;;;;5081663;28;20503;-80
2024/02/20 06:31:17;;;;;;;0.57;0.57;;;7.30;99.90;;;;;;5087195;28;20204;-80
2024/02/20 06:33:44;;;;;;;1.27;1.25;;;7.30;99.90;;;;;;5079931;28;20375;-82
2024/02/20 06:36:11;;;;;;;0.63;0.63;;;7.40;99.90;;;;;;5080246;28;20227;-81
2024/02/20 06:38:38;;;;;;;2.63;2.53;;;7.40;99.90;;;;;;5086255;28;20203;-81
2024/02/20 06:41:05;;;;;;;0.88;0.88;;;7.40;99.90;;;;;;5087883;28;20235;-81
2024/02/20 06:43:35;;;;;;;0.93;0.93;;;7.40;99.90;;;;;;5089664;28;20230;-79
2024/02/20 06:46:03;;;;;;;0.70;0.70;;;7.40;99.90;;;;;;5074563;28;20194;-80
2024/02/20 06:48:30;;;;;;;1.70;1.70;;;7.40;99.90;;;;;;5080421;28;20201;-81
2024/02/20 06:50:57;;;;;;;0.57;0.57;;;7.40;99.90;;;;;;5090048;28;20203;-79
2024/02/20 06:53:24;;;;;;;1.00;1.00;;;7.50;99.90;;;;;;5078012;28;20206;-80
2024/02/20 06:55:51;;;;;;;2.55;2.15;;;7.40;99.90;;;;;;5081602;28;20523;-80
2024/02/20 06:58:18;;;;;;;2.40;2.28;;;7.40;99.90;;;;;;5096663;28;20270;-79
2024/02/20 07:00:46;;;;;;;1.70;1.63;;;7.60;99.90;;;;;;5084880;28;20207;-81
2024/02/20 07:03:13;;;;;;;2.33;2.22;;;7.50;99.90;;;;;;5076865;28;20242;-78
2024/02/20 07:05:40;;;;;;;3.25;1.95;;;7.50;99.90;;;;;;5076590;28;20245;-80
2024/02/20 07:08:08;;;;;;;0.70;0.70;;;7.50;99.90;;;;;;5077582;28;20203;-81
2024/02/20 07:10:35;;;;;;;1.70;1.60;;;7.50;99.90;;;;;;5085614;28;20219;-80
2024/02/20 07:13:02;;;;;;;0.98;0.98;;;7.50;99.90;;;;;;5092152;28;20262;-80
2024/02/20 07:15:29;;;;;;;1.52;1.42;;;7.60;99.90;;;;;;5082646;28;20511;-82
2024/02/20 07:17:57;;;;;;;1.60;1.50;;;7.70;99.90;;;;;;5090126;28;20205;-81
2024/02/20 07:20:24;;;;;;;0.82;0.82;;;7.70;99.90;;;;;;5061121;28;20223;-80
2024/02/20 07:22:51;;;;;;;2.10;2.00;;;7.70;99.90;;;;;;5076042;28;20200;-81
2024/02/20 07:25:21;;;;;;;1.50;1.40;;;7.70;99.90;;;;;;5096123;28;20208;-81
2024/02/20 07:27:48;;;;;;;2.40;2.25;;;7.70;99.90;;;;;;5092498;28;20199;-81
2024/02/20 07:30:15;;;;;;;2.65;2.45;;;7.80;99.90;;;;;;5088565;28;20195;-82
2024/02/20 07:32:43;;;;;;;0.70;0.70;;;7.80;99.90;;;;;;5074617;28;20379;-84
2024/02/20 07:35:11;;;;;;;6.07;2.53;;;7.80;99.90;;;;;;5081769;28;20203;-80
2024/02/20 07:37:40;;;;;;;1.17;1.17;;;7.90;99.90;;;;;;5085214;28;20399;-81
2024/02/20 07:40:11;;;;;;;1.90;1.80;;;7.90;99.90;;;;;;5076047;28;20202;-81
2024/02/20 07:42:39;;;;;;;0.40;0.40;;;7.90;99.90;;;;;;5083291;28;20199;-82
2024/02/20 07:45:07;;;;;;;1.50;1.13;;;7.90;99.90;;;;;;5076944;28;20194;-82
2024/02/20 07:47:35;;;;;;;0.55;0.55;;;8.10;99.90;;;;;;5089727;28;20480;-80
2024/02/20 07:50:03;;;;;;;1.73;1.63;;;8.20;99.90;;;;;;5074742;28;20198;-81
2024/02/20 07:52:32;;;;;;;3.80;1.35;;;8.20;99.90;;;;;;5093296;28;20199;-82
2024/02/20 07:55:00;;;;;;;1.40;1.35;;;8.30;99.90;;;;;;5083230;28;20209;-81
2024/02/20 07:57:27;;;;;;;0.80;0.80;;;8.40;99.90;;;;;;5072295;28;20206;-81
2024/02/20 07:59:55;;;;;;;3.80;3.50;;;8.40;99.90;;;;;;5084256;28;20484;-82
2024/02/20 08:02:22;;;;;;;1.13;1.02;;;8.40;99.90;;;;;;5086060;28;20206;-81
2024/02/20 08:04:49;;;;;;;2.63;2.53;;;8.40;99.90;;;;;;5077385;28;20206;-81
2024/02/20 08:07:16;;;;;;;0.40;0.40;;;8.40;99.90;;;;;;5099563;28;20226;-82
2024/02/20 08:09:43;;;;;;;0.88;0.88;;;8.40;99.90;;;;;;5099693;28;20209;-82
2024/02/20 08:12:11;;;;;;;0.88;0.88;;;8.40;99.90;;;;;;5084833;28;20207;-81
2024/02/20 08:14:38;;;;;;;0.63;0.63;;;8.40;99.90;;;;;;5093588;28;20213;-82
2024/02/20 08:17:06;;;;;;;1.55;1.52;;;8.30;99.90;;;;;;5079360;28;20236;-82
2024/02/20 08:19:33;;;;;;;0.63;0.63;;;8.20;99.90;;;;;;5077111;28;20206;-82
2024/02/20 08:22:00;;;;;;;1.77;1.67;;;8.20;99.90;;;;;;5098567;28;20296;-83
2024/02/20 08:24:29;;;;;;;1.70;1.63;;;8.20;99.90;;;;;;5090512;28;20202;-82
2024/02/20 08:26:57;;;;;;;0.60;0.60;;;8.10;99.90;;;;;;5080985;28;20355;-82
2024/02/20 08:29:27;;;;;;;1.52;1.50;;;8.20;99.90;;;;;;5074795;28;20237;-82
2024/02/20 08:31:57;;;;;;;0.95;0.95;;;8.10;99.90;;;;;;5095894;28;20246;-82
2024/02/20 08:34:24;;;;;;;0.60;0.60;;;8.20;99.90;;;;;;5101894;28;20207;-83
2024/02/20 08:36:52;;;;;;;1.45;1.45;;;8.20;99.90;;;;;;5103783;28;20292;-82
2024/02/20 08:39:19;;;;;;;0.50;0.50;;;8.20;99.90;;;;;;5086101;28;20233;-80
2024/02/20 08:41:46;;;;;;;0.50;0.50;;;8.20;99.90;;;;;;5076150;28;20449;-81
2024/02/20 08:44:13;;;;;;;3.83;3.63;;;8.40;99.90;;;;;;5087799;28;20199;-83
2024/02/20 08:46:40;;;;;;;0.70;0.70;;;8.30;99.90;;;;;;5094341;28;20245;-82
2024/02/20 08:49:08;;;;;;;2.30;2.20;;;8.30;99.90;;;;;;5083097;28;20199;-80
2024/02/20 08:51:35;;;;;;;1.60;1.60;;;8.40;99.90;;;;;;5085785;28;20266;-82
2024/02/20 08:54:02;;;;;;;0.55;0.55;;;8.40;99.90;;;;;;5098281;28;20285;-82
2024/02/20 08:56:29;;;;;;;2.17;1.77;;;8.50;99.90;;;;;;5075868;28;20223;-82
2024/02/20 08:58:56;;;;;;;1.13;1.13;;;8.50;99.90;;;;;;5076061;28;20199;-82
2024/02/20 09:01:24;;;;;;;1.25;1.25;;;8.50;99.90;;;;;;5057835;28;20200;-82
2024/02/20 09:03:54;;;;;;;0.80;0.80;;;8.70;99.90;;;;;;5082538;28;20237;-81
2024/02/20 09:06:21;;;;;;;1.13;1.13;;;8.70;99.90;;;;;;5085503;28;20202;-81
2024/02/20 09:08:49;;;;;;;1.80;1.67;;;8.80;99.90;;;;;;5083858;28;20262;-82
2024/02/20 09:11:16;;;;;;;1.10;1.10;;;9.00;99.90;;;;;;5098236;28;20230;-82
2024/02/20 09:13:43;;;;;;;0.70;0.70;;;8.90;99.90;;;;;;5084866;28;20204;-82
2024/02/20 09:16:10;;;;;;;1.35;1.35;;;9.00;99.90;;;;;;5096274;28;20226;-81
2024/02/20 09:18:38;;;;;;;0.50;0.50;;;9.10;99.90;;;;;;5086407;28;20223;-81
2024/02/20 09:21:06;;;;;;;0.65;0.65;;;9.20;99.90;;;;;;5097817;28;20225;-83
2024/02/20 09:23:37;;;;;;;4.13;2.35;;;9.30;99.90;;;;;;5073684;28;20357;-82
2024/02/20 09:26:06;;;;;;;0.60;0.60;;;9.50;99.90;;;;;;5097614;28;20203;-83
2024/02/20 09:28:33;;;;;;;1.15;1.15;;;9.40;99.90;;;;;;5096076;28;20210;-82
2024/02/20 09:31:01;;;;;;;2.05;1.95;;;9.50;99.90;;;;;;5092700;28;20263;-82
2024/02/20 09:33:32;;;;;;;0.63;0.63;;;9.30;99.90;;;;;;5080907;28;20265;-81
2024/02/20 09:36:00;;;;;;;0.50;0.50;;;9.00;99.90;;;;;;5073772;28;20261;-82
2024/02/20 09:38:27;;;;;;;0.95;0.90;;;8.90;99.90;;;;;;5085966;28;20438;-81
2024/02/20 09:40:54;;;;;;;1.65;1.55;;;8.80;99.90;;;;;;5085217;28;20196;-81
2024/02/20 09:43:24;;;;;;;0.70;0.70;;;8.80;99.90;;;;;;5083598;28;20199;-82
2024/02/20 09:45:53;;;;;;;0.60;0.60;;;8.80;99.90;;;;;;5083710;28;20262;-83
2024/02/20 09:48:22;;;;;;;1.05;1.05;;;8.80;99.90;;;;;;5077682;28;20420;-80
2024/02/20 09:50:51;;;;;;;0.50;0.50;;;8.80;99.90;;;;;;5084916;28;20245;-82
2024/02/20 09:53:21;;;;;;;0.60;0.60;;;8.80;99.90;;;;;;5074028;28;20195;-80
2024/02/20 09:55:53;;;;;;;0.40;0.40;;;8.90;99.90;;;;;;5073481;28;20227;-80
2024/02/20 09:58:20;;;;;;;0.50;0.50;;;8.90;99.90;;;;;;5063381;28;20190;-82
2024/02/20 10:00:47;;;;;;;0.93;0.93;;;8.90;99.90;;;;;;5095728;28;20198;-81
2024/02/20 10:03:15;;;;;;;0.65;0.65;;;9.10;99.90;;;;;;5079849;28;20201;-82
2024/02/20 10:05:45;;;;;;;0.40;0.40;;;9.20;99.90;;;;;;5074341;28;20198;-81
2024/02/20 10:08:14;;;;;;;1.50;1.17;;;9.40;99.90;;;;;;5077236;28;20482;-84
2024/02/20 10:10:46;;;;;;;0.70;0.70;;;9.40;99.90;;;;;;5095471;28;20243;-83
2024/02/20 10:13:14;;;;;;;1.02;1.02;;;9.30;99.90;;;;;;5103017;28;20210;-82
2024/02/20 10:15:41;;;;;;;0.52;0.52;;;9.20;99.90;;;;;;5100372;28;20222;-80
2024/02/20 10:18:08;;;;;;;0.40;0.40;;;8.90;99.90;;;;;;5080265;28;20581;-81
2024/02/20 10:20:36;;;;;;;0.40;0.40;;;8.80;99.90;;;;;;5091979;28;20214;-80
2024/02/20 10:23:05;;;;;;;0.70;0.70;;;8.70;99.90;;;;;;5076873;28;20266;-82
2024/02/20 10:25:33;;;;;;;1.00;1.00;;;8.60;99.90;;;;;;5085909;28;20207;-82
2024/02/20 10:28:01;;;;;;;0.40;0.40;;;9.00;99.90;;;;;;5085151;28;20203;-81
2024/02/20 10:30:30;;;;;;;0.50;0.50;;;9.40;99.90;;;;;;5097357;28;20270;-82
2024/02/20 10:32:57;;;;;;;0.60;0.60;;;9.50;99.90;;;;;;5081462;28;20455;-82
2024/02/20 10:35:25;;;;;;;1.02;1.02;;;10.00;99.90;;;;;;5096916;28;20207;-82
2024/02/20 10:38:01;;;;;;;0.50;0.50;;;10.10;99.90;;;;;;5085269;28;20384;-84
2024/02/20 10:40:29;;;;;;;0.70;0.70;;;10.30;99.90;;;;;;5088890;28;20394;-82
2024/02/20 10:42:57;;;;;;;0.50;0.50;;;9.90;99.90;;;;;;5087814;28;20500;-81
2024/02/20 10:45:27;;;;;;;0.50;0.50;;;9.70;99.90;;;;;;5085623;28;20198;-80
2024/02/20 10:47:59;;;;;;;0.50;0.50;;;9.40;99.90;;;;;;5087904;28;20237;-80
2024/02/20 10:50:27;;;;;;;0.50;0.50;;;9.20;99.90;;;;;;5070218;28;20226;-82
2024/02/20 10:53:00;;;;;;;1.20;1.13;;;9.20;99.90;;;;;;5069478;28;20360;-81
2024/02/20 10:55:32;;;;;;;0.98;0.98;;;9.20;99.90;;;;;;5089607;28;20205;-82
2024/02/20 10:58:02;;;;;;;0.50;0.50;;;9.10;99.90;;;;;;5067215;28;20237;-82
2024/02/20 11:00:34;;;;;;;0.50;0.50;;;9.30;99.90;;;;;;5089571;28;20486;-81
2024/02/20 11:03:05;;;;;;;0.50;0.50;;;9.50;99.90;;;;;;5087529;28;20290;-82
2024/02/20 11:05:33;;;;;;;0.50;0.50;;;9.50;99.90;;;;;;5084536;28;20248;-83
2024/02/20 11:08:14;;;;;;;1.35;1.25;;;9.70;99.90;;;;;;5100464;28;20379;-82
2024/02/20 11:10:41;;;;;;;0.73;0.73;;;9.90;99.90;;;;;;5060391;28;20205;-82
2024/02/20 11:13:13;;;;;;;0.50;0.50;;;9.70;99.90;;;;;;5065221;28;20277;-81
2024/02/20 11:15:41;;;;;;;0.77;0.77;;;9.70;99.90;;;;;;5083606;28;20194;-83
2024/02/20 11:18:18;;;;;;;0.50;0.50;;;9.70;99.90;;;;;;5083174;28;20543;-81
2024/02/20 11:21:02;;;;;;;0.55;0.55;;;9.70;99.90;;;;;;5077072;28;20226;-81
2024/02/20 11:23:30;;;;;;;0.70;0.70;;;9.60;99.90;;;;;;5075966;28;20199;-81
2024/02/20 11:26:10;;;;;;;0.47;0.47;;;9.70;99.90;;;;;;5092266;28;20396;-84
2024/02/20 11:28:38;;;;;;;0.50;0.50;;;9.80;99.90;;;;;;5086930;28;20268;-82
2024/02/20 11:31:06;;;;;;;2.55;2.35;;;9.70;99.90;;;;;;5068282;28;20261;-80
2024/02/20 11:33:34;;;;;;;0.55;0.55;;;9.60;99.90;;;;;;5089619;28;20199;-81
2024/02/20 11:36:06;;;;;;;0.60;0.60;;;9.40;99.90;;;;;;5076524;28;20227;-81
2024/02/20 11:38:34;;;;;;;0.60;0.60;;;9.40;99.90;;;;;;5082214;28;20199;-82
2024/02/20 11:41:06;;;;;;;0.60;0.60;;;9.20;99.90;;;;;;5072590;28;20206;-82
2024/02/20 11:43:35;;;;;;;0.50;0.50;;;9.20;99.90;;;;;;5065272;28;20203;-84
2024/02/20 11:46:02;;;;;;;0.52;0.52;;;9.20;99.90;;;;;;5073195;28;20237;-81
2024/02/20 11:48:31;;;;;;;0.50;0.50;;;9.00;99.90;;;;;;5074013;28;20199;-82
2024/02/20 11:51:00;;;;;;;0.93;0.93;;;9.00;99.90;;;;;;5083899;28;20207;-82
2024/02/20 11:53:28;;;;;;;0.75;0.75;;;8.90;99.90;;;;;;5064905;28;20411;-82
2024/02/20 11:55:55;;;;;;;1.17;1.08;;;8.70;99.90;;;;;;5090907;28;20219;-81
2024/02/20 11:58:24;;;;;;;0.50;0.50;;;9.00;99.90;;;;;;5073365;28;20527;-81
2024/02/20 12:01:02;;;;;;;0.50;0.50;;;9.00;99.90;;;;;;5057821;28;20226;-83
2024/02/20 12:03:34;;;;;;;0.50;0.50;;;9.20;99.90;;;;;;5076027;28;20221;-83
2024/02/20 12:06:03;;;;;;;0.50;0.50;;;9.30;99.90;;;;;;5088119;28;20213;-83
2024/02/20 12:08:42;;;;;;;0.60;0.60;;;9.50;99.90;;;;;;5070928;28;20555;-82
2024/02/20 12:11:16;;;;;;;0.50;0.50;;;10.00;99.90;;;;;;5089180;28;20290;-81
2024/02/20 12:13:46;;;;;;;0.60;0.60;;;9.90;99.90;;;;;;5070671;28;20202;-83
2024/02/20 12:16:26;;;;;;;0.60;0.60;;;10.20;99.90;;;;;;5069653;28;20206;-84
2024/02/20 12:18:56;;;;;;;0.60;0.60;;;10.00;99.90;;;;;;5088872;28;20495;-82
2024/02/20 12:21:38;;;;;;;0.63;0.63;;;10.40;99.90;;;;;;5074285;28;20203;-83
2024/02/20 12:24:10;;;;;;;0.60;0.60;;;10.00;99.90;;;;;;5074051;28;20274;-83
2024/02/20 12:26:38;;;;;;;0.70;0.70;;;9.50;99.90;;;;;;5089281;28;20206;-82
2024/02/20 12:29:05;;;;;;;0.70;0.70;;;9.40;99.90;;;;;;5086317;28;20196;-83
2024/02/20 12:31:33;;;;;;;0.60;0.60;;;9.00;99.90;;;;;;5066418;28;20258;-83
2024/02/20 12:34:02;;;;;;;0.60;0.60;;;8.90;99.90;;;;;;5066818;28;20263;-83
2024/02/20 12:36:30;;;;;;;0.55;0.55;;;8.80;99.90;;;;;;5069692;28;20274;-83
2024/02/20 12:38:59;;;;;;;0.70;0.70;;;9.00;99.90;;;;;;5086986;28;20201;-81
2024/02/20 12:41:27;;;;;;;0.60;0.60;;;9.30;99.90;;;;;;5096812;28;20199;-81
2024/02/20 12:43:54;;;;;;;0.50;0.50;;;9.40;99.90;;;;;;5052581;28;20396;-82
2024/02/20 12:46:22;;;;;;;0.55;0.55;;;9.50;99.90;;;;;;5091427;28;20246;-79
2024/02/20 12:48:53;;;;;;;0.75;0.75;;;9.90;99.90;;;;;;5066458;28;20195;-83
2024/02/20 12:51:22;;;;;;;0.50;0.50;;;10.40;99.90;;;;;;5091162;28;20203;-81
2024/02/20 12:53:49;;;;;;;1.27;1.25;;;10.70;99.90;;;;;;5081533;28;20226;-84
2024/02/20 12:56:16;;;;;;;1.30;0.88;;;10.60;99.90;;;;;;5088300;28;20203;-80
2024/02/20 12:58:43;;;;;;;0.50;0.50;;;10.70;99.90;;;;;;5084941;28;20242;-82
2024/02/20 13:01:13;;;;;;;0.70;0.70;;;10.60;99.90;;;;;;5093540;28;20564;-81
2024/02/20 13:03:41;;;;;;;1.00;1.00;;;9.40;99.90;;;;;;5088466;28;20361;-79